Time;durP1;ratioP1;P1;durP2;ratioP2;P2;SDS_P1;SDS_P2;PMS_P1;PMS_P2;Temp;Humidity;BMP_temperature;BMP_pressure;BME280_temperature;BME280_humidity;BME280_pressure;Samples;Min_cycle;Max_cycle;Signal;HPM_P1;HPM_P2
2022/04/26 03:36:55;;;;;;;11.85;9.57;;;;;;;;;;5076457;28;20287;-73
2022/04/26 03:39:22;;;;;;;13.60;9.73;;;;;;;;;;5076710;28;20192;-73
2022/04/26 03:41:49;;;;;;;13.52;8.90;;;;;;;;;;5076667;28;20223;-72
2022/04/26 03:44:17;;;;;;;12.70;10.60;;;;;;;;;;5076643;28;20202;-73
2022/04/26 03:46:44;;;;;;;20.02;11.43;;;;;;;;;;5076932;28;20237;-72
2022/04/26 03:49:12;;;;;;;15.25;10.40;;;;;;;;;;5076514;28;20283;-72
2022/04/26 03:51:40;;;;;;;11.98;9.75;;;;;;;;;;5076235;28;20206;-72
2022/04/26 03:54:07;;;;;;;13.82;9.70;;;;;;;;;;5076097;28;20203;-73
2022/04/26 03:56:34;;;;;;;14.43;8.80;;;;;;;;;;5076759;28;20194;-72
2022/04/26 03:59:01;;;;;;;15.10;10.00;;;;;;;;;;5076317;28;20191;-71
2022/04/26 04:01:28;;;;;;;16.50;10.30;;;;;;;;;;5076291;28;20242;-72
2022/04/26 04:03:55;;;;;;;12.35;9.85;;;;;;;;;;5076555;28;20199;-72
2022/04/26 04:06:24;;;;;;;16.98;11.25;;;;;;;;;;5076127;28;20206;-71
2022/04/26 04:08:51;;;;;;;13.18;10.93;;;;;;;;;;5075886;28;20223;-71
2022/04/26 04:11:18;;;;;;;17.10;11.30;;;;;;;;;;5076244;28;20197;-72
2022/04/26 04:13:46;;;;;;;12.57;9.75;;;;;;;;;;5075778;28;20290;-71
2022/04/26 04:16:13;;;;;;;13.82;10.55;;;;;;;;;;5075750;28;20202;-71
2022/04/26 04:21:27;;;;;;;16.15;12.13;;;;;;;;;;5075704;28;20206;-70
2022/04/26 04:23:54;;;;;;;18.40;11.80;;;;;;;;;;5075593;28;20196;-71
2022/04/26 04:26:21;;;;;;;18.95;13.07;;;;;;;;;;5075848;28;20199;-70
2022/04/26 04:28:48;;;;;;;19.45;11.95;;;;;;;;;;5075881;28;20201;-70
2022/04/26 04:31:15;;;;;;;17.15;12.25;;;;;;;;;;5075079;28;20209;-71
2022/04/26 04:33:43;;;;;;;20.40;13.18;;;;;;;;;;5075768;28;20254;-71
2022/04/26 04:36:11;;;;;;;16.00;12.82;;;;;;;;;;5075688;28;20196;-71
2022/04/26 04:38:39;;;;;;;14.15;12.65;;;;;;;;;;5074962;28;20253;-70
2022/04/26 04:41:07;;;;;;;19.27;12.55;;;;;;;;;;5075571;28;20231;-70
2022/04/26 04:43:35;;;;;;;16.17;12.88;;;;;;;;;;5075514;28;20223;-70
2022/04/26 04:46:02;;;;;;;24.73;12.63;;;;;;;;;;5075607;28;20207;-70
2022/04/26 04:48:29;;;;;;;16.27;13.00;;;;;;;;;;5075261;28;20196;-70
2022/04/26 04:50:56;;;;;;;18.83;12.55;;;;;;;;;;5075437;28;20282;-71
2022/04/26 04:53:24;;;;;;;18.80;13.43;;;;;;;;;;5075477;28;20203;-71
2022/04/26 04:55:52;;;;;;;17.30;12.38;;;;;;;;;;5075266;28;20200;-71
2022/04/26 04:58:19;;;;;;;19.00;13.13;;;;;;;;;;5075521;28;20198;-71
2022/04/26 05:00:47;;;;;;;15.75;12.68;;;;;;;;;;5075267;28;20594;-71
2022/04/26 05:03:14;;;;;;;20.58;14.60;;;;;;;;;;5074861;28;20205;-70
2022/04/26 05:05:41;;;;;;;20.73;12.90;;;;;;;;;;5075078;28;20199;-70
2022/04/26 05:08:11;;;;;;;17.40;13.60;;;;;;;;;;5074663;28;20283;-70
2022/04/26 05:10:38;;;;;;;17.90;13.75;;;;;;;;;;5074911;28;20202;-70
2022/04/26 05:13:08;;;;;;;20.17;14.95;;;;;;;;;;5075067;28;20196;-70
2022/04/26 05:15:38;;;;;;;22.48;13.07;;;;;;;;;;5074593;28;20192;-70
2022/04/26 05:18:05;;;;;;;21.52;14.57;;;;;;;;;;5073147;28;20292;-71
2022/04/26 05:20:32;;;;;;;20.15;14.43;;;;;;;;;;5072932;28;20360;-71
2022/04/26 05:25:45;;;;;;;19.63;13.32;;;;;;;;;;5074329;28;20183;-69
2022/04/26 05:28:13;;;;;;;29.92;13.88;;;;;;;;;;5074700;28;20200;-67
2022/04/26 05:30:41;;;;;;;19.98;14.88;;;;;;;;;;5074552;28;20200;-69
2022/04/26 05:33:08;;;;;;;19.92;14.88;;;;;;;;;;5074222;28;20196;-68
2022/04/26 05:35:35;;;;;;;20.15;14.45;;;;;;;;;;5074065;28;20195;-68
2022/04/26 05:38:02;;;;;;;22.25;14.73;;;;;;;;;;5074157;28;20227;-68
2022/04/26 05:40:29;;;;;;;21.60;13.90;;;;;;;;;;5074265;28;20224;-68
2022/04/26 05:42:57;;;;;;;16.25;13.07;;;;;;;;;;5073380;28;20562;-68
2022/04/26 05:45:27;;;;;;;19.90;14.85;;;;;;;;;;5074232;28;20200;-68
2022/04/26 05:47:55;;;;;;;24.70;14.60;;;;;;;;;;5074109;28;20201;-68
2022/04/26 05:50:22;;;;;;;20.05;14.50;;;;;;;;;;5073772;28;20206;-68
2022/04/26 05:52:49;;;;;;;21.65;15.30;;;;;;;;;;5073832;28;20199;-68
2022/04/26 05:55:16;;;;;;;20.65;14.35;;;;;;;;;;5073911;28;20200;-68
2022/04/26 05:57:44;;;;;;;18.67;12.50;;;;;;;;;;5074044;28;20625;-68
2022/04/26 06:00:12;;;;;;;19.83;13.80;;;;;;;;;;5074145;28;20734;-67
2022/04/26 06:02:44;;;;;;;19.00;13.65;;;;;;;;;;5073450;28;20222;-68
2022/04/26 06:05:13;;;;;;;25.35;17.88;;;;;;;;;;5074255;28;20188;-68
2022/04/26 06:07:40;;;;;;;22.02;14.88;;;;;;;;;;5074038;28;20196;-68
2022/04/26 06:10:08;;;;;;;18.83;13.52;;;;;;;;;;5073955;28;20195;-68
2022/04/26 06:12:35;;;;;;;26.45;14.98;;;;;;;;;;5073851;28;20206;-68
2022/04/26 06:15:02;;;;;;;16.77;13.32;;;;;;;;;;5073529;28;20201;-69
2022/04/26 06:17:31;;;;;;;18.13;15.07;;;;;;;;;;5073750;28;20551;-69
2022/04/26 06:19:58;;;;;;;25.73;14.75;;;;;;;;;;5074134;28;20192;-68
2022/04/26 06:22:27;;;;;;;19.58;13.93;;;;;;;;;;5073514;28;20226;-68
2022/04/26 06:24:54;;;;;;;20.70;15.05;;;;;;;;;;5073626;28;20200;-68
2022/04/26 06:27:22;;;;;;;25.70;15.13;;;;;;;;;;5073207;28;20250;-69
2022/04/26 06:29:49;;;;;;;19.38;14.70;;;;;;;;;;5074097;28;20288;-69
2022/04/26 06:32:16;;;;;;;23.45;15.77;;;;;;;;;;5073560;28;20200;-69
2022/04/26 06:34:43;;;;;;;18.90;13.80;;;;;;;;;;5073250;28;20599;-69
2022/04/26 06:37:12;;;;;;;19.88;14.57;;;;;;;;;;5073007;28;20208;-69
2022/04/26 06:39:41;;;;;;;21.90;15.07;;;;;;;;;;5073668;28;20280;-69
2022/04/26 06:42:08;;;;;;;20.35;14.55;;;;;;;;;;5073133;28;20310;-69
2022/04/26 06:44:36;;;;;;;20.95;15.38;;;;;;;;;;5073578;28;20199;-69
2022/04/26 06:47:03;;;;;;;20.50;15.63;;;;;;;;;;5073192;28;20318;-70
2022/04/26 06:49:30;;;;;;;20.10;14.45;;;;;;;;;;5073227;28;20198;-68
2022/04/26 06:51:57;;;;;;;25.92;17.48;;;;;;;;;;5073490;28;20236;-69
2022/04/26 06:54:25;;;;;;;20.17;15.90;;;;;;;;;;5074890;28;20279;-69
2022/04/26 06:56:53;;;;;;;24.25;15.68;;;;;;;;;;5077155;28;20194;-69
2022/04/26 06:59:20;;;;;;;22.98;17.05;;;;;;;;;;5077557;28;20197;-69
2022/04/26 07:01:52;;;;;;;23.98;15.02;;;;;;;;;;5077175;28;20317;-69
2022/04/26 07:04:19;;;;;;;24.48;17.30;;;;;;;;;;5077216;28;20181;-69
2022/04/26 07:06:47;;;;;;;23.77;16.27;;;;;;;;;;5077282;28;20201;-69
2022/04/26 07:09:14;;;;;;;24.15;16.00;;;;;;;;;;5077046;28;20276;-66
2022/04/26 07:11:42;;;;;;;17.40;14.73;;;;;;;;;;5076843;28;20204;-68
2022/04/26 07:14:11;;;;;;;20.50;16.08;;;;;;;;;;5077265;28;20625;-67
2022/04/26 07:16:39;;;;;;;21.00;15.68;;;;;;;;;;5076756;28;20200;-67
2022/04/26 07:19:06;;;;;;;20.02;14.75;;;;;;;;;;5077593;28;20626;-68
2022/04/26 07:21:35;;;;;;;27.63;16.42;;;;;;;;;;5077120;28;20318;-67
2022/04/26 07:24:03;;;;;;;24.15;15.95;;;;;;;;;;5077047;28;20224;-67
2022/04/26 07:26:30;;;;;;;17.10;14.23;;;;;;;;;;5076613;28;20204;-68
2022/04/26 07:28:57;;;;;;;23.75;15.30;;;;;;;;;;5077131;28;20197;-68
2022/04/26 07:31:25;;;;;;;20.38;13.65;;;;;;;;;;5076806;28;20198;-68
2022/04/26 07:36:43;;;;;;;18.20;15.73;;;;;;;;;;5065787;28;20255;-68
2022/04/26 07:39:10;;;;;;;25.08;15.00;;;;;;;;;;5077011;28;20242;-68
2022/04/26 07:41:37;;;;;;;22.48;17.80;;;;;;;;;;5076894;28;20568;-68
2022/04/26 07:44:05;;;;;;;23.08;17.08;;;;;;;;;;5076240;28;20259;-68
2022/04/26 07:46:33;;;;;;;22.17;15.90;;;;;;;;;;5076490;28;20201;-68
2022/04/26 07:49:01;;;;;;;20.70;16.73;;;;;;;;;;5076462;28;20200;-68
2022/04/26 07:51:28;;;;;;;28.25;16.88;;;;;;;;;;5076151;28;20292;-68
2022/04/26 07:53:56;;;;;;;21.38;15.80;;;;;;;;;;5076406;28;20204;-68
2022/04/26 07:56:23;;;;;;;21.83;16.90;;;;;;;;;;5076057;28;20255;-68
2022/04/26 07:58:52;;;;;;;22.38;16.10;;;;;;;;;;5076050;28;20620;-68
2022/04/26 08:01:20;;;;;;;20.17;15.73;;;;;;;;;;5077077;28;20196;-68
2022/04/26 08:03:48;;;;;;;22.92;18.10;;;;;;;;;;5076052;28;20201;-68
2022/04/26 08:06:16;;;;;;;19.60;15.60;;;;;;;;;;5075619;28;20285;-68
2022/04/26 08:08:43;;;;;;;20.13;16.58;;;;;;;;;;5076437;28;20639;-68
2022/04/26 08:11:12;;;;;;;21.25;17.65;;;;;;;;;;5076189;28;20196;-68
2022/04/26 08:13:39;;;;;;;25.23;17.00;;;;;;;;;;5075986;28;20202;-68
2022/04/26 08:16:07;;;;;;;15.32;13.65;;;;;;;;;;5075981;28;20450;-68
2022/04/26 08:18:34;;;;;;;19.20;15.00;;;;;;;;;;5075166;28;20620;-68
2022/04/26 08:21:03;;;;;;;19.20;15.40;;;;;;;;;;5075615;28;20286;-68
2022/04/26 08:23:31;;;;;;;29.33;20.83;;;;;;;;;;5075515;28;20309;-68
2022/04/26 08:28:54;;;;;;;21.95;15.73;;;;;;;;;;5053268;28;20191;-68
2022/04/26 08:31:21;;;;;;;21.15;16.75;;;;;;;;;;5070326;28;20198;-68
2022/04/26 08:33:49;;;;;;;21.10;15.10;;;;;;;;;;5075705;28;20217;-67
2022/04/26 08:36:18;;;;;;;18.10;15.73;;;;;;;;;;5075734;28;20198;-69
2022/04/26 08:38:45;;;;;;;20.90;16.80;;;;;;;;;;5075434;28;20272;-69
2022/04/26 08:41:15;;;;;;;19.63;16.08;;;;;;;;;;5075625;28;20908;-68
2022/04/26 08:43:42;;;;;;;26.48;16.73;;;;;;;;;;5075410;28;20224;-69
2022/04/26 08:46:10;;;;;;;17.23;14.23;;;;;;;;;;5075267;28;20198;-68
2022/04/26 08:51:23;;;;;;;18.30;15.50;;;;;;;;;;5075246;28;20396;-68
2022/04/26 08:53:51;;;;;;;22.10;16.30;;;;;;;;;;5074998;28;20523;-68
2022/04/26 08:56:20;;;;;;;22.23;15.50;;;;;;;;;;5075343;28;20881;-68
2022/04/26 08:58:48;;;;;;;23.90;15.90;;;;;;;;;;5074797;28;20872;-69
2022/04/26 09:01:18;;;;;;;18.00;14.00;;;;;;;;;;5074869;28;20490;-69
2022/04/26 09:03:54;;;;;;;23.33;16.40;;;;;;;;;;5074906;28;20606;-69
2022/04/26 09:06:23;;;;;;;18.90;16.57;;;;;;;;;;5074846;28;20409;-69
2022/04/26 09:08:51;;;;;;;18.43;14.70;;;;;;;;;;5074593;28;20452;-69
2022/04/26 09:11:33;;;;;;;24.00;15.53;;;;;;;;;;5075076;28;20520;-69
2022/04/26 09:14:00;;;;;;;22.17;17.10;;;;;;;;;;5075017;28;20436;-69
2022/04/26 09:16:28;;;;;;;19.70;15.40;;;;;;;;;;5074863;28;20822;-68
2022/04/26 09:18:57;;;;;;;24.30;16.43;;;;;;;;;;5073719;28;20440;-69
2022/04/26 09:21:27;;;;;;;21.23;15.00;;;;;;;;;;5074799;28;20441;-69
2022/04/26 09:23:57;;;;;;;28.90;16.60;;;;;;;;;;5074976;28;20490;-71
2022/04/26 09:26:25;;;;;;;22.10;17.10;;;;;;;;;;5074384;28;20455;-71
2022/04/26 09:28:53;;;;;;;24.40;15.57;;;;;;;;;;5074580;28;20502;-71
2022/04/26 09:31:21;;;;;;;18.20;14.00;;;;;;;;;;5074384;28;20293;-71
2022/04/26 09:33:51;;;;;;;17.90;14.90;;;;;;;;;;5074421;28;20457;-68
2022/04/26 09:36:20;;;;;;;16.70;13.33;;;;;;;;;;5074176;28;20441;-70
2022/04/26 09:38:52;;;;;;;20.90;14.40;;;;;;;;;;5074429;28;20483;-69
2022/04/26 09:41:20;;;;;;;14.13;11.70;;;;;;;;;;5074198;28;20511;-69
2022/04/26 09:43:56;;;;;;;19.57;14.80;;;;;;;;;;5074211;28;20830;-69
2022/04/26 09:46:23;;;;;;;21.37;14.73;;;;;;;;;;5074410;28;20456;-69
2022/04/26 09:48:53;;;;;;;19.60;16.47;;;;;;;;;;5073957;28;20456;-68
2022/04/26 09:51:20;;;;;;;19.23;14.87;;;;;;;;;;5074225;28;20464;-69
2022/04/26 09:53:47;;;;;;;16.97;13.80;;;;;;;;;;5073854;28;20448;-69
2022/04/26 09:56:16;;;;;;;20.50;15.70;;;;;;;;;;5073785;28;20966;-68
2022/04/26 09:58:45;;;;;;;17.70;14.13;;;;;;;;;;5074016;28;20489;-69
2022/04/26 10:01:14;;;;;;;19.23;14.93;;;;;;;;;;5073821;28;20949;-68
2022/04/26 10:03:43;;;;;;;19.30;16.30;;;;;;;;;;5074000;28;20480;-68
2022/04/26 10:06:10;;;;;;;25.73;15.50;;;;;;;;;;5074269;28;20528;-69
2022/04/26 10:08:38;;;;;;;18.60;16.10;;;;;;;;;;5074033;28;20926;-68
2022/04/26 10:11:05;;;;;;;20.07;16.77;;;;;;;;;;5073871;28;20531;-69
2022/04/26 10:13:39;;;;;;;19.40;15.73;;;;;;;;;;5074006;28;20480;-69
2022/04/26 10:16:07;;;;;;;16.63;14.83;;;;;;;;;;5073679;28;20510;-68
2022/04/26 10:18:35;;;;;;;18.93;15.27;;;;;;;;;;5073721;28;20445;-69
2022/04/26 10:21:04;;;;;;;18.87;16.80;;;;;;;;;;5073735;28;20804;-69
2022/04/26 10:23:51;;;;;;;19.80;16.87;;;;;;;;;;5073716;28;21083;-69
2022/04/26 10:26:24;;;;;;;25.53;16.57;;;;;;;;;;5073637;28;20535;-69
2022/04/26 10:28:54;;;;;;;18.40;16.50;;;;;;;;;;5073268;28;20448;-68
2022/04/26 10:31:22;;;;;;;20.83;17.07;;;;;;;;;;5074047;28;20443;-68
2022/04/26 10:33:49;;;;;;;18.70;16.57;;;;;;;;;;5073219;28;20939;-69
2022/04/26 10:36:35;;;;;;;23.30;17.30;;;;;;;;;;5073791;28;20451;-68
2022/04/26 10:39:26;;;;;;;22.10;17.13;;;;;;;;;;5073761;28;20464;-69
2022/04/26 10:41:55;;;;;;;17.83;15.47;;;;;;;;;;5053147;28;20446;-68
2022/04/26 10:44:31;;;;;;;21.60;18.17;;;;;;;;;;5073418;28;20489;-68
2022/04/26 10:47:18;;;;;;;20.90;16.80;;;;;;;;;;5073558;28;20424;-68
2022/04/26 10:49:46;;;;;;;19.80;16.03;;;;;;;;;;5073073;28;20436;-68
2022/04/26 10:52:33;;;;;;;20.83;16.97;;;;;;;;;;5073114;28;20441;-68
2022/04/26 10:55:08;;;;;;;19.03;17.03;;;;;;;;;;5073671;28;20852;-68
2022/04/26 10:57:36;;;;;;;18.80;16.03;;;;;;;;;;5073770;28;20768;-68
2022/04/26 11:00:06;;;;;;;21.27;15.90;;;;;;;;;;5072960;28;20438;-68
2022/04/26 11:02:35;;;;;;;18.07;16.20;;;;;;;;;;5073057;28;20481;-68
2022/04/26 11:05:03;;;;;;;19.87;15.70;;;;;;;;;;5073476;28;20440;-68
2022/04/26 11:07:31;;;;;;;16.47;14.67;;;;;;;;;;5073566;28;20448;-69
2022/04/26 11:09:58;;;;;;;18.63;16.43;;;;;;;;;;5073858;28;20442;-69
2022/04/26 11:12:27;;;;;;;20.77;16.57;;;;;;;;;;5073811;28;20460;-68
2022/04/26 11:14:56;;;;;;;28.20;17.40;;;;;;;;;;5073405;28;20523;-68
2022/04/26 11:17:25;;;;;;;21.70;17.37;;;;;;;;;;5073132;28;20441;-68
2022/04/26 11:19:53;;;;;;;19.97;16.50;;;;;;;;;;5073413;28;20778;-68
2022/04/26 11:22:21;;;;;;;18.33;16.50;;;;;;;;;;5073205;28;20512;-68
2022/04/26 11:30:25;;;;;;;20.50;15.67;;;;;;;;;;5072764;28;20397;-68
2022/04/26 11:32:57;;;;;;;19.07;16.60;;;;;;;;;;5073038;28;20438;-68
2022/04/26 11:35:24;;;;;;;18.67;15.57;;;;;;;;;;5072998;28;20426;-72
2022/04/26 11:37:53;;;;;;;23.30;16.03;;;;;;;;;;5072512;28;20565;-73
2022/04/26 11:40:27;;;;;;;19.63;16.37;;;;;;;;;;5073114;28;20432;-72
2022/04/26 11:42:56;;;;;;;23.70;16.47;;;;;;;;;;5076325;28;20464;-71
2022/04/26 11:45:28;;;;;;;29.50;17.03;;;;;;;;;;5075738;28;20437;-72
2022/04/26 11:47:57;;;;;;;22.67;16.23;;;;;;;;;;5075696;28;20440;-72
2022/04/26 11:50:25;;;;;;;18.10;16.03;;;;;;;;;;5076232;28;20487;-71
2022/04/26 11:52:55;;;;;;;20.23;17.20;;;;;;;;;;5076299;28;20449;-71
2022/04/26 11:55:26;;;;;;;23.17;15.67;;;;;;;;;;5075790;28;20926;-70
2022/04/26 11:57:54;;;;;;;17.27;15.50;;;;;;;;;;5076458;28;20500;-70
2022/04/26 12:00:22;;;;;;;17.57;14.37;;;;;;;;;;5076461;28;20438;-70
2022/04/26 12:02:50;;;;;;;17.00;15.07;;;;;;;;;;5075947;28;20473;-70
2022/04/26 12:05:21;;;;;;;18.53;16.37;;;;;;;;;;5075927;28;20491;-71
2022/04/26 12:07:49;;;;;;;19.33;16.07;;;;;;;;;;5076150;28;20798;-70
2022/04/26 12:10:32;;;;;;;23.13;16.20;;;;;;;;;;5075507;28;20538;-70
2022/04/26 12:13:01;;;;;;;22.93;16.00;;;;;;;;;;5075941;28;20758;-70
2022/04/26 12:15:29;;;;;;;17.40;15.60;;;;;;;;;;5075391;28;20953;-70
2022/04/26 12:18:04;;;;;;;17.67;14.73;;;;;;;;;;5075476;28;20445;-70
2022/04/26 12:20:33;;;;;;;19.90;15.63;;;;;;;;;;5075555;28;20954;-70
2022/04/26 12:23:00;;;;;;;18.83;15.20;;;;;;;;;;5075830;28;20481;-70
2022/04/26 12:25:27;;;;;;;16.93;14.57;;;;;;;;;;5075836;28;20935;-69
2022/04/26 12:28:08;;;;;;;18.00;14.00;;;;;;;;;;5075589;28;20450;-71
2022/04/26 12:30:37;;;;;;;16.70;14.93;;;;;;;;;;5075779;28;20524;-70
2022/04/26 12:33:05;;;;;;;17.33;15.63;;;;;;;;;;5075460;28;20536;-70
2022/04/26 12:35:34;;;;;;;16.60;14.93;;;;;;;;;;5075344;28;20442;-70
2022/04/26 12:38:06;;;;;;;19.90;16.20;;;;;;;;;;5075426;28;20482;-71
2022/04/26 12:40:33;;;;;;;19.00;15.60;;;;;;;;;;5075553;28;20438;-71
2022/04/26 12:43:01;;;;;;;18.77;15.10;;;;;;;;;;5075491;28;20473;-70
2022/04/26 12:45:28;;;;;;;16.53;14.60;;;;;;;;;;5075265;28;20481;-71
2022/04/26 12:50:52;;;;;;;14.77;13.17;;;;;;;;;;5075127;28;20415;-71
2022/04/26 12:53:23;;;;;;;17.10;13.50;;;;;;;;;;5075060;28;20446;-71
2022/04/26 12:55:51;;;;;;;19.40;14.60;;;;;;;;;;5075114;28;20457;-71
2022/04/26 12:58:19;;;;;;;13.50;11.63;;;;;;;;;;5075015;28;20924;-71
2022/04/26 13:00:47;;;;;;;19.70;17.13;;;;;;;;;;5075174;28;20961;-71
2022/04/26 13:03:17;;;;;;;17.67;14.27;;;;;;;;;;5074915;28;20474;-71
2022/04/26 13:05:45;;;;;;;19.17;14.90;;;;;;;;;;5075532;28;20931;-71
2022/04/26 13:08:14;;;;;;;18.47;13.93;;;;;;;;;;5074651;28;20445;-71
2022/04/26 13:10:42;;;;;;;19.60;13.57;;;;;;;;;;5074984;28;20441;-71
2022/04/26 13:13:09;;;;;;;16.13;12.93;;;;;;;;;;5074561;28;20453;-71
2022/04/26 13:15:37;;;;;;;14.93;13.10;;;;;;;;;;5074632;28;20437;-71
2022/04/26 13:18:05;;;;;;;15.00;13.23;;;;;;;;;;5074215;28;20867;-72
2022/04/26 13:20:34;;;;;;;15.70;14.20;;;;;;;;;;5075133;28;20449;-71
2022/04/26 13:23:01;;;;;;;14.73;13.33;;;;;;;;;;5074573;28;20536;-72
2022/04/26 13:25:30;;;;;;;15.30;13.80;;;;;;;;;;5074538;28;20433;-71
2022/04/26 13:27:57;;;;;;;16.57;12.93;;;;;;;;;;5074647;28;20445;-71
2022/04/26 13:30:24;;;;;;;15.10;11.27;;;;;;;;;;5074918;28;20972;-70
2022/04/26 13:32:53;;;;;;;14.20;11.97;;;;;;;;;;5074258;28;20445;-72
2022/04/26 13:35:20;;;;;;;19.40;13.50;;;;;;;;;;5074533;28;20804;-72
2022/04/26 13:37:48;;;;;;;14.17;12.73;;;;;;;;;;5074420;28;20577;-72
2022/04/26 13:40:15;;;;;;;14.07;12.67;;;;;;;;;;5074821;28;20442;-71
2022/04/26 13:42:44;;;;;;;14.50;13.30;;;;;;;;;;5074429;28;20439;-72
2022/04/26 13:45:11;;;;;;;13.70;11.80;;;;;;;;;;5073947;28;20473;-70
2022/04/26 13:47:39;;;;;;;16.47;13.30;;;;;;;;;;5074091;28;20445;-70
2022/04/26 13:50:07;;;;;;;15.00;12.23;;;;;;;;;;5073961;28;20492;-72
2022/04/26 13:52:34;;;;;;;12.87;11.63;;;;;;;;;;5074614;28;20529;-71
2022/04/26 13:55:02;;;;;;;14.07;12.57;;;;;;;;;;5074205;28;20440;-72
2022/04/26 13:57:29;;;;;;;15.40;13.70;;;;;;;;;;5074005;28;20845;-72
2022/04/26 13:59:58;;;;;;;13.93;12.50;;;;;;;;;;5073972;28;20439;-72
2022/04/26 14:02:25;;;;;;;13.73;12.33;;;;;;;;;;5073713;28;20442;-72
2022/04/26 14:04:53;;;;;;;16.70;12.37;;;;;;;;;;5073346;28;20836;-71
2022/04/26 14:07:20;;;;;;;16.43;13.83;;;;;;;;;;5073940;28;20475;-71
2022/04/26 14:09:47;;;;;;;13.13;11.43;;;;;;;;;;5073699;28;20528;-71
2022/04/26 14:12:18;;;;;;;14.53;12.00;;;;;;;;;;5073770;28;20511;-70
2022/04/26 14:23:01;;;;;;;12.93;11.87;;;;;;;;;;5073588;28;20456;-71
2022/04/26 14:25:28;;;;;;;14.30;11.33;;;;;;;;;;5073852;28;20533;-72
2022/04/26 14:28:00;;;;;;;12.90;11.70;;;;;;;;;;5073704;28;20856;-71
2022/04/26 14:30:27;;;;;;;14.07;11.93;;;;;;;;;;5073448;28;20434;-71
2022/04/26 14:32:56;;;;;;;14.17;12.60;;;;;;;;;;5074013;28;20525;-72
2022/04/26 14:35:23;;;;;;;12.83;11.20;;;;;;;;;;5073744;28;20455;-72
2022/04/26 14:37:53;;;;;;;11.70;10.60;;;;;;;;;;5073253;28;20514;-71
2022/04/26 14:40:20;;;;;;;11.67;10.33;;;;;;;;;;5073658;28;20446;-71
2022/04/26 14:42:47;;;;;;;13.00;11.53;;;;;;;;;;5073172;28;20941;-71
2022/04/26 14:45:15;;;;;;;13.53;10.70;;;;;;;;;;5073505;28;20487;-72
2022/04/26 14:47:42;;;;;;;12.70;11.10;;;;;;;;;;5073028;28;20476;-72
2022/04/26 14:50:10;;;;;;;12.33;11.13;;;;;;;;;;5073670;28;20529;-70
2022/04/26 14:52:38;;;;;;;16.50;11.67;;;;;;;;;;5073065;28;20535;-72
2022/04/26 14:55:07;;;;;;;10.87;9.47;;;;;;;;;;5073101;28;20449;-71
2022/04/26 14:57:35;;;;;;;12.83;11.60;;;;;;;;;;5072970;28;20451;-70
2022/04/26 15:00:03;;;;;;;11.93;9.83;;;;;;;;;;5073340;28;20498;-70
2022/04/26 15:02:36;;;;;;;10.87;9.77;;;;;;;;;;5072714;28;20446;-71
2022/04/26 15:05:04;;;;;;;14.30;10.67;;;;;;;;;;5073603;28;20474;-70
2022/04/26 15:09:42;;;;;;;10.93;9.90;;;;;;;;;;5073051;28;20536;-71
2022/04/26 15:10:18;;;;;;;14.13;10.93;;;;;;;;;;5073485;28;20414;-71
2022/04/26 15:18:23;;;;;;;13.27;10.70;;;;;;;;;;5076824;28;20444;-71
2022/04/26 15:20:52;;;;;;;10.90;9.90;;;;;;;;;;5076775;28;20520;-71
2022/04/26 15:23:21;;;;;;;10.67;9.77;;;;;;;;;;5076912;28;20492;-71
2022/04/26 15:25:50;;;;;;;13.60;9.17;;;;;;;;;;5076640;28;20551;-74
2022/04/26 15:28:18;;;;;;;11.17;9.13;;;;;;;;;;5076575;28;20443;-71
2022/04/26 15:30:45;;;;;;;10.03;9.13;;;;;;;;;;5076870;28;20463;-71
2022/04/26 15:33:13;;;;;;;10.33;8.43;;;;;;;;;;5076716;28;20434;-71
2022/04/26 15:35:42;;;;;;;11.57;10.47;;;;;;;;;;5076371;28;20826;-71
2022/04/26 15:38:10;;;;;;;10.90;9.30;;;;;;;;;;5076199;28;20562;-71
2022/04/26 15:40:39;;;;;;;9.83;8.83;;;;;;;;;;5076416;28;20536;-71
2022/04/26 15:43:07;;;;;;;14.70;9.00;;;;;;;;;;5076352;28;20486;-71
2022/04/26 15:45:36;;;;;;;9.43;8.60;;;;;;;;;;5076455;28;20875;-71
2022/04/26 15:48:03;;;;;;;9.57;8.60;;;;;;;;;;5076812;28;20848;-72
2022/04/26 15:50:35;;;;;;;10.27;9.27;;;;;;;;;;5076355;28;20540;-71
2022/04/26 15:53:02;;;;;;;9.60;8.87;;;;;;;;;;5076141;28;20435;-71
2022/04/26 15:55:30;;;;;;;13.33;9.47;;;;;;;;;;5076276;28;20496;-71
2022/04/26 15:57:58;;;;;;;10.50;9.50;;;;;;;;;;5076394;28;20469;-72
2022/04/26 16:00:26;;;;;;;13.13;9.43;;;;;;;;;;5076324;28;20442;-71
2022/04/26 16:02:54;;;;;;;9.77;8.70;;;;;;;;;;5076299;28;20547;-71
2022/04/26 16:05:21;;;;;;;10.80;9.80;;;;;;;;;;5076106;28;20481;-71
2022/04/26 16:07:48;;;;;;;9.73;8.80;;;;;;;;;;5076118;28;20447;-71
2022/04/26 16:21:25;;;;;;;10.33;9.33;;;;;;;;;;5075758;28;20418;-71
2022/04/26 16:23:53;;;;;;;11.73;10.00;;;;;;;;;;5075911;28;20517;-71
2022/04/26 16:26:22;;;;;;;10.13;9.00;;;;;;;;;;5076015;28;20442;-71
2022/04/26 16:28:51;;;;;;;10.40;9.30;;;;;;;;;;5075533;28;20441;-71
2022/04/26 16:31:19;;;;;;;12.70;9.83;;;;;;;;;;5075488;28;20494;-71
2022/04/26 16:33:46;;;;;;;13.93;10.03;;;;;;;;;;5075603;28;20907;-71
2022/04/26 16:36:15;;;;;;;10.27;9.13;;;;;;;;;;5076014;28;20455;-71
2022/04/26 16:38:42;;;;;;;11.07;9.07;;;;;;;;;;5075767;28;20538;-72
2022/04/26 16:41:09;;;;;;;10.87;8.97;;;;;;;;;;5075897;28;20440;-71
2022/04/26 16:43:37;;;;;;;9.80;8.77;;;;;;;;;;5075429;28;20474;-70
2022/04/26 16:46:06;;;;;;;14.17;9.30;;;;;;;;;;5075261;28;20476;-71
2022/04/26 16:48:35;;;;;;;9.80;8.47;;;;;;;;;;5075472;28;20502;-71
2022/04/26 16:51:02;;;;;;;10.10;9.10;;;;;;;;;;5074045;28;20450;-71
2022/04/26 16:53:30;;;;;;;11.40;9.50;;;;;;;;;;5075066;28;20536;-71
2022/04/26 16:55:58;;;;;;;9.10;8.20;;;;;;;;;;5075196;28;20525;-71
2022/04/26 16:58:25;;;;;;;12.33;9.30;;;;;;;;;;5075387;28;20463;-71
2022/04/26 17:00:52;;;;;;;9.27;8.37;;;;;;;;;;5074811;28;20999;-71
2022/04/26 17:03:21;;;;;;;12.10;9.47;;;;;;;;;;5074791;28;20442;-71
2022/04/26 17:05:48;;;;;;;9.27;8.50;;;;;;;;;;5074637;28;20510;-71
2022/04/26 17:08:15;;;;;;;9.43;8.23;;;;;;;;;;5074579;28;20945;-71
2022/04/26 17:10:43;;;;;;;10.43;9.20;;;;;;;;;;5074713;28;20473;-71
2022/04/26 17:13:10;;;;;;;9.50;8.60;;;;;;;;;;5074472;28;20448;-71
2022/04/26 17:15:38;;;;;;;14.03;8.23;;;;;;;;;;5074341;28;20451;-71
2022/04/26 17:18:06;;;;;;;17.80;9.80;;;;;;;;;;5075102;28;20468;-71
2022/04/26 17:20:35;;;;;;;8.40;7.60;;;;;;;;;;5074862;28;20878;-71
2022/04/26 17:23:02;;;;;;;8.60;7.63;;;;;;;;;;5074310;28;20528;-71
2022/04/26 17:25:29;;;;;;;9.57;8.57;;;;;;;;;;5074418;28;20805;-71
2022/04/26 17:27:59;;;;;;;13.83;9.37;;;;;;;;;;5074275;28;20445;-71
2022/04/26 17:30:26;;;;;;;10.13;7.93;;;;;;;;;;5074137;28;20865;-71
2022/04/26 17:32:54;;;;;;;10.90;8.90;;;;;;;;;;5074479;28;20545;-71
2022/04/26 17:35:21;;;;;;;10.17;9.00;;;;;;;;;;5073942;28;20446;-71
2022/04/26 17:37:52;;;;;;;9.90;8.90;;;;;;;;;;5073917;28;20565;-71
2022/04/26 17:40:21;;;;;;;11.27;8.50;;;;;;;;;;5073248;28;20430;-71
2022/04/26 17:42:48;;;;;;;10.77;9.50;;;;;;;;;;5073921;28;20453;-71
2022/04/26 17:45:15;;;;;;;10.80;8.80;;;;;;;;;;5073589;28;20976;-71
2022/04/26 17:47:42;;;;;;;19.37;11.63;;;;;;;;;;5074096;28;20444;-71
2022/04/26 17:50:10;;;;;;;11.43;9.37;;;;;;;;;;5073888;28;20441;-71
2022/04/26 17:56:28;;;;;;;10.93;9.83;;;;;;;;;;5073882;28;20447;-71
2022/04/26 17:58:12;;;;;;;14.70;10.90;;;;;;;;;;5073628;28;20447;-71
2022/04/26 18:00:39;;;;;;;16.23;8.60;;;;;;;;;;5073871;28;20476;-71
2022/04/26 18:03:07;;;;;;;9.67;8.10;;;;;;;;;;5073988;28;20450;-72
2022/04/26 18:05:34;;;;;;;9.27;8.30;;;;;;;;;;5074061;28;20574;-71
2022/04/26 18:08:01;;;;;;;13.07;8.70;;;;;;;;;;5073961;28;20449;-72
2022/04/26 18:10:30;;;;;;;10.03;7.57;;;;;;;;;;5073351;28;20495;-72
2022/04/26 18:12:57;;;;;;;11.50;9.37;;;;;;;;;;5055554;28;20466;-71
2022/04/26 18:15:24;;;;;;;11.70;8.30;;;;;;;;;;5053468;28;20456;-66
2022/04/26 18:17:52;;;;;;;13.20;8.07;;;;;;;;;;5053089;28;20438;-69
2022/04/26 18:20:22;;;;;;;10.33;8.33;;;;;;;;;;5053379;28;20443;-69
2022/04/26 18:22:59;;;;;;;11.90;9.60;;;;;;;;;;5053578;28;20436;-70
2022/04/26 18:28:15;;;;;;;8.53;7.73;;;;;;;;;;5052833;28;20935;-68
2022/04/26 18:30:46;;;;;;;13.30;8.83;;;;;;;;;;5052822;28;20437;-70
2022/04/26 18:33:13;;;;;;;10.27;9.20;;;;;;;;;;5053334;28;20425;-69
2022/04/26 18:35:40;;;;;;;12.50;8.30;;;;;;;;;;5052836;28;20966;-69
2022/04/26 18:38:09;;;;;;;10.23;8.67;;;;;;;;;;5052876;28;20534;-69
2022/04/26 18:40:37;;;;;;;12.43;8.63;;;;;;;;;;5053001;28;20787;-69
2022/04/26 18:43:04;;;;;;;14.27;9.10;;;;;;;;;;5052782;28;20450;-70
2022/04/26 18:45:32;;;;;;;12.33;8.50;;;;;;;;;;5052677;28;20570;-69
2022/04/26 18:48:00;;;;;;;14.27;8.93;;;;;;;;;;5052844;28;20445;-69
2022/04/26 18:50:27;;;;;;;10.60;8.03;;;;;;;;;;5052933;28;20449;-69
2022/04/26 18:52:54;;;;;;;11.73;9.53;;;;;;;;;;5053067;28;20444;-69
2022/04/26 18:55:21;;;;;;;9.30;8.33;;;;;;;;;;5052437;28;20461;-70
2022/04/26 18:57:48;;;;;;;10.40;9.23;;;;;;;;;;5053065;28;20539;-69